Ocean City, Maryland
Current Conditions -  °F | °C
As of 10:53 AM on Sunday 23 Nov 2014 (Local Time) from KOXB Reporting Station
Clear Clear  
Wind Chill: 46°   Ceiling: Unl
Heat Index: 48°   Visibility: 10mi
Dew Point: 36°   Wind: 5mph
Humidity: 63%   Direction: 190°S
Pressure: 30.26"   Gusts: NA
Location:  38.34°N, 75.08°W
Report Text: KOXB 231553Z AUTO 19004KT 10SM CLR 09/02 A3026 RMK AO2 SLP245 T00890022 TSNO
Loading
Personal Weather Stations






























Interactive Weather Map New forecast layout! Learn more

10-Day Weather Forecast

Advertisements
Track Severe Weather on mobile